Bullard, Texas
Current Conditions -  °F | °C
As of 8:53 AM on Thursday 23 Oct 2014 (Local Time) from KTYR Reporting Station
Broken Clouds Broken Clouds  
Wind Chill: 60°   Ceiling: 12000
Heat Index: 60°   Visibility: 10mi
Dew Point: 52°   Wind: 5mph
Humidity: 75%   Direction: 80°E
Pressure: 30.15"   Gusts: NA
Location:  32.14°N, 95.32°W
Report Text: KTYR 231353Z 08004KT 10SM BKN120 16/11 A3015 RMK AO2 RAB07E53 SLP206 P0000 T01560111
Loading
Personal Weather Stations






























Interactive Weather Map
Tropical Storm Tracking
New forecast layout! Learn more

10-Day Weather Forecast

Advertisements
Track Severe Weather on mobile